sensor_id;sensor_type;location;lat;lon;timestamp;pressure;altitude;pressure_sealevel;temperature;humidity
57827;BME280;43656;57.746;11.780;2022-09-20T01:05:38;101275.75;;;9.68;82.81
57827;BME280;43656;57.746;11.780;2022-09-20T03:02:14;101528.16;;;9.69;92.87
57827;BME280;43656;57.746;11.780;2022-09-20T03:49:01;101404.72;;;7.60;95.01
57827;BME280;43656;57.746;11.780;2022-09-20T03:51:37;101568.84;;;8.53;95.66
57827;BME280;43656;57.746;11.780;2022-09-20T03:59:46;101348.25;;;6.70;96.49
57827;BME280;43656;57.746;11.780;2022-09-20T04:33:50;101351.31;;;5.79;98.65
57827;BME280;43656;57.746;11.780;2022-09-20T04:38:52;101293.97;;;5.65;99.58
57827;BME280;43656;57.746;11.780;2022-09-20T04:41:39;101454.81;;;6.56;99.24
57827;BME280;43656;57.746;11.780;2022-09-20T05:01:36;101642.09;;;7.35;100.00
57827;BME280;43656;57.746;11.780;2022-09-20T05:24:05;101668.88;;;7.35;100.00
57827;BME280;43656;57.746;11.780;2022-09-20T05:29:50;101617.31;;;7.06;100.00
57827;BME280;43656;57.746;11.780;2022-09-20T05:32:28;101668.78;;;7.44;100.00
57827;BME280;43656;57.746;11.780;2022-09-20T05:38:15;101686.19;;;7.74;100.00
57827;BME280;43656;57.746;11.780;2022-09-20T05:41:21;101669.34;;;7.82;100.00
57827;BME280;43656;57.746;11.780;2022-09-20T05:44:23;101682.84;;;8.07;100.00
57827;BME280;43656;57.746;11.780;2022-09-20T05:47:04;101680.41;;;8.21;98.94
57827;BME280;43656;57.746;11.780;2022-09-20T05:50:23;101679.72;;;8.28;98.39
57827;BME280;43656;57.746;11.780;2022-09-20T05:52:59;101658.63;;;8.33;97.63
57827;BME280;43656;57.746;11.780;2022-09-20T05:55:50;101689.94;;;8.58;97.52
57827;BME280;43656;57.746;11.780;2022-09-20T05:59:00;101697.19;;;8.74;96.22
57827;BME280;43656;57.746;11.780;2022-09-20T06:08:15;101708.78;;;9.07;94.92
57827;BME280;43656;57.746;11.780;2022-09-20T06:16:03;101706.94;;;9.24;93.62
57827;BME280;43656;57.746;11.780;2022-09-20T06:18:37;101700.56;;;9.25;93.27
57827;BME280;43656;57.746;11.780;2022-09-20T06:21:24;101713.44;;;9.46;92.67
57827;BME280;43656;57.746;11.780;2022-09-20T06:23:57;101707.94;;;9.48;92.54
57827;BME280;43656;57.746;11.780;2022-09-20T06:26:26;101726.53;;;9.65;92.46
57827;BME280;43656;57.746;11.780;2022-09-20T06:28:55;101705.91;;;9.58;91.99
57827;BME280;43656;57.746;11.780;2022-09-20T06:31:23;101729.38;;;9.80;91.81
57827;BME280;43656;57.746;11.780;2022-09-20T06:34:00;101720.97;;;9.83;91.43
57827;BME280;43656;57.746;11.780;2022-09-20T06:36:30;101733.50;;;9.99;90.90
57827;BME280;43656;57.746;11.780;2022-09-20T06:39:31;101737.84;;;10.08;90.43
57827;BME280;43656;57.746;11.780;2022-09-20T06:42:17;101738.50;;;10.19;89.51
57827;BME280;43656;57.746;11.780;2022-09-20T06:44:42;101745.88;;;10.25;88.96
57827;BME280;43656;57.746;11.780;2022-09-20T06:47:09;101735.09;;;10.25;89.15
57827;BME280;43656;57.746;11.780;2022-09-20T06:49:35;101693.38;;;9.98;87.75
57827;BME280;43656;57.746;11.780;2022-09-20T06:52:05;101767.91;;;10.37;88.66
57827;BME280;43656;57.746;11.780;2022-09-20T06:54:31;101758.59;;;10.47;87.97
57827;BME280;43656;57.746;11.780;2022-09-20T06:56:57;101762.75;;;10.58;88.03
57827;BME280;43656;57.746;11.780;2022-09-20T06:59:28;101748.13;;;10.52;87.57
57827;BME280;43656;57.746;11.780;2022-09-20T07:01:53;101771.75;;;10.73;86.90
57827;BME280;43656;57.746;11.780;2022-09-20T07:04:19;101771.53;;;10.83;86.28
57827;BME280;43656;57.746;11.780;2022-09-20T07:06:46;101783.09;;;10.92;86.17
57827;BME280;43656;57.746;11.780;2022-09-20T07:09:11;101784.03;;;10.99;85.92
57827;BME280;43656;57.746;11.780;2022-09-20T07:11:37;101751.66;;;10.84;85.88
57827;BME280;43656;57.746;11.780;2022-09-20T07:14:02;101784.16;;;11.05;85.70
57827;BME280;43656;57.746;11.780;2022-09-20T07:16:28;101792.09;;;11.07;85.06
57827;BME280;43656;57.746;11.780;2022-09-20T07:18:53;101799.16;;;11.08;84.87
57827;BME280;43656;57.746;11.780;2022-09-20T07:21:20;101789.31;;;11.15;85.22
57827;BME280;43656;57.746;11.780;2022-09-20T07:23:45;101792.97;;;11.22;84.38
57827;BME280;43656;57.746;11.780;2022-09-20T07:26:24;101775.94;;;11.07;83.60
57827;BME280;43656;57.746;11.780;2022-09-20T07:28:51;101772.91;;;11.02;84.91
57827;BME280;43656;57.746;11.780;2022-09-20T07:31:19;101792.63;;;11.25;84.55
57827;BME280;43656;57.746;11.780;2022-09-20T07:33:54;101794.78;;;11.30;84.38
57827;BME280;43656;57.746;11.780;2022-09-20T07:36:20;101779.63;;;11.29;84.41
57827;BME280;43656;57.746;11.780;2022-09-20T07:38:47;101740.84;;;11.15;84.23
57827;BME280;43656;57.746;11.780;2022-09-20T07:41:14;101782.88;;;11.47;84.02
57827;BME280;43656;57.746;11.780;2022-09-20T07:43:41;101800.50;;;11.73;83.62
57827;BME280;43656;57.746;11.780;2022-09-20T07:46:06;101798.22;;;11.85;83.31
57827;BME280;43656;57.746;11.780;2022-09-20T07:48:34;101800.94;;;11.85;83.49
57827;BME280;43656;57.746;11.780;2022-09-20T07:51:08;101802.47;;;11.79;83.08
57827;BME280;43656;57.746;11.780;2022-09-20T07:53:33;101808.13;;;11.69;82.95
57827;BME280;43656;57.746;11.780;2022-09-20T07:58:29;101799.47;;;11.74;83.44
57827;BME280;43656;57.746;11.780;2022-09-20T08:00:58;101800.09;;;11.84;83.56
57827;BME280;43656;57.746;11.780;2022-09-20T08:03:25;101782.34;;;11.90;83.10
57827;BME280;43656;57.746;11.780;2022-09-20T08:05:57;101814.19;;;12.09;82.56
57827;BME280;43656;57.746;11.780;2022-09-20T08:08:23;101799.38;;;11.90;82.45
57827;BME280;43656;57.746;11.780;2022-09-20T08:10:48;101826.19;;;12.07;82.59
57827;BME280;43656;57.746;11.780;2022-09-20T08:13:14;101765.94;;;11.76;82.48
57827;BME280;43656;57.746;11.780;2022-09-20T08:15:40;101832.34;;;12.15;82.20
57827;BME280;43656;57.746;11.780;2022-09-20T08:18:07;101823.22;;;12.16;82.16
57827;BME280;43656;57.746;11.780;2022-09-20T08:20:39;101823.78;;;12.27;81.29
57827;BME280;43656;57.746;11.780;2022-09-20T08:23:05;101835.91;;;12.45;81.63
57827;BME280;43656;57.746;11.780;2022-09-20T08:25:31;101828.50;;;12.25;81.59
57827;BME280;43656;57.746;11.780;2022-09-20T08:27:56;101841.28;;;12.45;80.78
57827;BME280;43656;57.746;11.780;2022-09-20T08:30:22;101842.75;;;12.48;80.89
57827;BME280;43656;57.746;11.780;2022-09-20T08:32:48;101853.09;;;12.59;80.52
57827;BME280;43656;57.746;11.780;2022-09-20T08:35:13;101852.19;;;12.52;80.50
57827;BME280;43656;57.746;11.780;2022-09-20T08:37:40;101778.66;;;12.20;79.92
57827;BME280;43656;57.746;11.780;2022-09-20T08:40:09;101812.13;;;12.41;79.29
57827;BME280;43656;57.746;11.780;2022-09-20T08:42:37;101786.38;;;12.38;78.94
57827;BME280;43656;57.746;11.780;2022-09-20T08:45:11;101844.78;;;12.90;79.30
57827;BME280;43656;57.746;11.780;2022-09-20T08:47:45;101814.94;;;12.62;78.52
57827;BME280;43656;57.746;11.780;2022-09-20T08:50:12;101825.44;;;12.72;78.32
57827;BME280;43656;57.746;11.780;2022-09-20T08:52:43;101822.16;;;12.77;77.83
57827;BME280;43656;57.746;11.780;2022-09-20T08:55:16;101847.53;;;13.12;77.70
57827;BME280;43656;57.746;11.780;2022-09-20T08:57:43;101844.56;;;13.07;77.38
57827;BME280;43656;57.746;11.780;2022-09-20T09:00:43;101843.34;;;13.09;75.94
57827;BME280;43656;57.746;11.780;2022-09-20T09:03:12;101838.59;;;13.11;76.89
57827;BME280;43656;57.746;11.780;2022-09-20T09:05:45;101847.25;;;13.22;76.21
57827;BME280;43656;57.746;11.780;2022-09-20T09:08:17;101847.78;;;13.32;76.28
57827;BME280;43656;57.746;11.780;2022-09-20T09:10:45;101854.28;;;13.37;76.54
57827;BME280;43656;57.746;11.780;2022-09-20T09:13:52;101852.53;;;13.30;75.97
57827;BME280;43656;57.746;11.780;2022-09-20T09:16:12;101835.09;;;13.32;76.55
57827;BME280;43656;57.746;11.780;2022-09-20T09:18:41;101861.13;;;13.55;76.02
57827;BME280;43656;57.746;11.780;2022-09-20T09:21:08;101836.47;;;13.43;76.42
57827;BME280;43656;57.746;11.780;2022-09-20T09:23:48;101861.81;;;13.63;75.26
57827;BME280;43656;57.746;11.780;2022-09-20T09:26:24;101838.53;;;13.62;74.96
57827;BME280;43656;57.746;11.780;2022-09-20T09:29:15;101858.63;;;13.75;75.02
57827;BME280;43656;57.746;11.780;2022-09-20T09:31:42;101828.75;;;13.61;74.67
57827;BME280;43656;57.746;11.780;2022-09-20T09:34:29;101859.91;;;13.79;74.93
57827;BME280;43656;57.746;11.780;2022-09-20T09:36:57;101857.56;;;13.76;76.23
57827;BME280;43656;57.746;11.780;2022-09-20T09:39:35;101847.75;;;13.68;76.45
57827;BME280;43656;57.746;11.780;2022-09-20T09:42:19;101863.25;;;13.59;77.83
57827;BME280;43656;57.746;11.780;2022-09-20T09:44:44;101862.88;;;13.62;77.68
57827;BME280;43656;57.746;11.780;2022-09-20T09:47:25;101857.13;;;13.51;78.05
57827;BME280;43656;57.746;11.780;2022-09-20T09:49:56;101868.06;;;13.43;77.88
57827;BME280;43656;57.746;11.780;2022-09-20T09:52:23;101851.25;;;13.26;78.18
57827;BME280;43656;57.746;11.780;2022-09-20T09:54:54;101874.97;;;13.45;78.62
57827;BME280;43656;57.746;11.780;2022-09-20T10:00:17;101870.56;;;13.44;79.59
57827;BME280;43656;57.746;11.780;2022-09-20T10:05:21;101876.94;;;13.36;78.85
57827;BME280;43656;57.746;11.780;2022-09-20T10:08:07;101871.34;;;13.38;80.04
57827;BME280;43656;57.746;11.780;2022-09-20T10:10:40;101876.78;;;13.38;80.42
57827;BME280;43656;57.746;11.780;2022-09-20T10:19:21;101864.53;;;13.42;79.68
57827;BME280;43656;57.746;11.780;2022-09-20T10:21:59;101866.09;;;13.51;80.26
57827;BME280;43656;57.746;11.780;2022-09-20T10:24:51;101881.13;;;13.60;79.71
57827;BME280;43656;57.746;11.780;2022-09-20T10:27:29;101877.88;;;13.65;78.75
57827;BME280;43656;57.746;11.780;2022-09-20T10:30:21;101864.28;;;13.58;77.31
57827;BME280;43656;57.746;11.780;2022-09-20T10:33:22;101853.03;;;13.55;78.15
57827;BME280;43656;57.746;11.780;2022-09-20T10:36:00;101837.13;;;13.45;78.57
57827;BME280;43656;57.746;11.780;2022-09-20T10:38:33;101876.97;;;13.79;77.33
57827;BME280;43656;57.746;11.780;2022-09-20T10:44:12;101883.66;;;13.83;73.60
57827;BME280;43656;57.746;11.780;2022-09-20T10:46:50;101887.78;;;13.79;72.66
57827;BME280;43656;57.746;11.780;2022-09-20T10:52:13;101876.19;;;13.85;72.03
57827;BME280;43656;57.746;11.780;2022-09-20T10:54:44;101889.13;;;13.90;72.69
57827;BME280;43656;57.746;11.780;2022-09-20T11:00:22;101893.63;;;13.83;71.89
57827;BME280;43656;57.746;11.780;2022-09-20T11:05:54;101882.69;;;13.91;69.32
57827;BME280;43656;57.746;11.780;2022-09-20T11:08:27;101903.09;;;14.15;70.58
57827;BME280;43656;57.746;11.780;2022-09-20T11:10:58;101895.19;;;14.20;69.36
57827;BME280;43656;57.746;11.780;2022-09-20T11:13:46;101907.38;;;14.31;69.28
57827;BME280;43656;57.746;11.780;2022-09-20T11:16:36;101902.84;;;14.38;66.91
57827;BME280;43656;57.746;11.780;2022-09-20T11:22:41;101909.03;;;14.60;68.62
57827;BME280;43656;57.746;11.780;2022-09-20T11:24:45;101899.53;;;14.71;69.02
57827;BME280;43656;57.746;11.780;2022-09-20T11:27:25;101903.91;;;14.72;67.76
57827;BME280;43656;57.746;11.780;2022-09-20T11:30:16;101893.47;;;14.69;68.51
57827;BME280;43656;57.746;11.780;2022-09-20T11:35:33;101912.38;;;14.90;67.58
57827;BME280;43656;57.746;11.780;2022-09-20T11:38:21;101913.22;;;14.97;68.05
57827;BME280;43656;57.746;11.780;2022-09-20T11:40:51;101912.41;;;14.97;66.85
57827;BME280;43656;57.746;11.780;2022-09-20T11:43:18;101910.78;;;15.09;66.89
57827;BME280;43656;57.746;11.780;2022-09-20T11:45:46;101877.34;;;14.95;66.80
57827;BME280;43656;57.746;11.780;2022-09-20T11:48:35;101917.66;;;15.12;65.91
57827;BME280;43656;57.746;11.780;2022-09-20T11:56:37;101916.47;;;15.21;67.19
57827;BME280;43656;57.746;11.780;2022-09-20T11:59:05;101910.78;;;15.09;68.03
57827;BME280;43656;57.746;11.780;2022-09-20T12:01:37;101900.75;;;15.10;67.48
57827;BME280;43656;57.746;11.780;2022-09-20T12:04:20;101918.38;;;15.27;67.31
57827;BME280;43656;57.746;11.780;2022-09-20T12:09:43;101923.59;;;15.35;65.35
57827;BME280;43656;57.746;11.780;2022-09-20T12:15:35;101899.44;;;14.92;68.68
57827;BME280;43656;57.746;11.780;2022-09-20T12:18:07;101876.41;;;14.68;68.03
57827;BME280;43656;57.746;11.780;2022-09-20T12:26:05;101905.81;;;14.50;74.31
57827;BME280;43656;57.746;11.780;2022-09-20T12:28:34;101934.28;;;14.61;74.61
57827;BME280;43656;57.746;11.780;2022-09-20T12:36:28;101916.22;;;14.46;77.06
57827;BME280;43656;57.746;11.780;2022-09-20T12:38:59;101930.53;;;14.62;76.71
57827;BME280;43656;57.746;11.780;2022-09-20T12:41:26;101942.59;;;14.59;77.27
57827;BME280;43656;57.746;11.780;2022-09-20T12:44:02;101903.88;;;14.37;76.88
57827;BME280;43656;57.746;11.780;2022-09-20T12:46:41;101933.41;;;14.60;77.75
57827;BME280;43656;57.746;11.780;2022-09-20T12:52:23;101920.88;;;14.52;76.32
57827;BME280;43656;57.746;11.780;2022-09-20T12:55:10;101947.22;;;14.65;76.46
57827;BME280;43656;57.746;11.780;2022-09-20T12:57:36;101924.41;;;14.53;76.37
57827;BME280;43656;57.746;11.780;2022-09-20T13:00:05;101935.16;;;14.68;74.81
57827;BME280;43656;57.746;11.780;2022-09-20T13:02:55;101944.56;;;14.72;75.54
57827;BME280;43656;57.746;11.780;2022-09-20T13:05:34;101954.75;;;14.70;76.26
57827;BME280;43656;57.746;11.780;2022-09-20T13:08:11;101952.69;;;14.72;76.47
57827;BME280;43656;57.746;11.780;2022-09-20T13:10:52;101908.38;;;14.51;76.94
57827;BME280;43656;57.746;11.780;2022-09-20T13:13:34;101940.81;;;14.73;76.33
57827;BME280;43656;57.746;11.780;2022-09-20T13:19:18;101942.28;;;14.75;77.97
57827;BME280;43656;57.746;11.780;2022-09-20T13:21:53;101937.09;;;14.74;79.03
57827;BME280;43656;57.746;11.780;2022-09-20T13:24:23;101918.47;;;14.64;78.78
57827;BME280;43656;57.746;11.780;2022-09-20T13:26:51;101889.69;;;14.35;79.80
57827;BME280;43656;57.746;11.780;2022-09-20T13:29:23;101925.75;;;14.64;79.77
57827;BME280;43656;57.746;11.780;2022-09-20T13:31:51;101944.34;;;14.73;79.83
57827;BME280;43656;57.746;11.780;2022-09-20T13:34:20;101933.69;;;14.65;80.42
57827;BME280;43656;57.746;11.780;2022-09-20T13:36:46;101936.22;;;14.73;81.03
57827;BME280;43656;57.746;11.780;2022-09-20T13:39:27;101947.31;;;14.78;80.27
57827;BME280;43656;57.746;11.780;2022-09-20T13:41:58;101938.97;;;14.80;80.69
57827;BME280;43656;57.746;11.780;2022-09-20T13:44:26;101933.72;;;14.72;80.89
57827;BME280;43656;57.746;11.780;2022-09-20T13:46:53;101946.66;;;14.76;80.67
57827;BME280;43656;57.746;11.780;2022-09-20T13:49:19;101930.81;;;14.73;80.04
57827;BME280;43656;57.746;11.780;2022-09-20T13:51:49;101949.22;;;14.85;80.71
57827;BME280;43656;57.746;11.780;2022-09-20T13:54:28;101953.78;;;14.77;80.61
57827;BME280;43656;57.746;11.780;2022-09-20T13:57:00;101938.34;;;14.78;81.18
57827;BME280;43656;57.746;11.780;2022-09-20T13:59:32;101910.53;;;14.63;80.52
57827;BME280;43656;57.746;11.780;2022-09-20T14:01:59;101954.69;;;14.91;79.87
57827;BME280;43656;57.746;11.780;2022-09-20T14:04:27;101953.09;;;15.03;79.97
57827;BME280;43656;57.746;11.780;2022-09-20T14:06:56;101951.44;;;15.09;78.72
57827;BME280;43656;57.746;11.780;2022-09-20T14:09:31;101953.31;;;15.09;78.95
57827;BME280;43656;57.746;11.780;2022-09-20T14:11:58;101947.81;;;14.95;80.12
57827;BME280;43656;57.746;11.780;2022-09-20T14:14:25;101943.41;;;14.88;81.98
57827;BME280;43656;57.746;11.780;2022-09-20T14:16:53;101947.31;;;14.78;81.68
57827;BME280;43656;57.746;11.780;2022-09-20T14:19:26;101944.34;;;14.73;82.21
57827;BME280;43656;57.746;11.780;2022-09-20T14:21:53;101946.03;;;14.74;80.14
57827;BME280;43656;57.746;11.780;2022-09-20T14:24:25;101952.91;;;14.70;82.12
57827;BME280;43656;57.746;11.780;2022-09-20T14:29:46;101956.66;;;14.76;82.72
57827;BME280;43656;57.746;11.780;2022-09-20T14:35:00;101955.31;;;14.59;83.25
57827;BME280;43656;57.746;11.780;2022-09-20T14:37:42;101969.50;;;14.61;83.43
57827;BME280;43656;57.746;11.780;2022-09-20T14:42:47;101968.81;;;14.52;83.30
57827;BME280;43656;57.746;11.780;2022-09-20T14:45:21;101976.25;;;14.50;81.54
57827;BME280;43656;57.746;11.780;2022-09-20T14:48:26;101983.81;;;14.54;81.34
57827;BME280;43656;57.746;11.780;2022-09-20T14:53:47;101953.63;;;14.36;82.46
57827;BME280;43656;57.746;11.780;2022-09-20T14:56:15;101949.16;;;14.22;81.97
57827;BME280;43656;57.746;11.780;2022-09-20T14:59:03;101984.13;;;14.45;83.75
57827;BME280;43656;57.746;11.780;2022-09-20T15:01:30;101985.41;;;14.49;85.75
57827;BME280;43656;57.746;11.780;2022-09-20T15:03:56;101989.53;;;14.45;82.68
57827;BME280;43656;57.746;11.780;2022-09-20T15:06:22;101992.03;;;14.46;82.48
57827;BME280;43656;57.746;11.780;2022-09-20T15:08:48;101991.59;;;14.43;82.43
57827;BME280;43656;57.746;11.780;2022-09-20T15:11:15;101971.53;;;14.30;83.25
57827;BME280;43656;57.746;11.780;2022-09-20T15:13:41;101984.97;;;14.45;83.23
57827;BME280;43656;57.746;11.780;2022-09-20T15:16:06;101999.09;;;14.41;80.35
57827;BME280;43656;57.746;11.780;2022-09-20T15:18:38;102004.75;;;14.46;81.63
57827;BME280;43656;57.746;11.780;2022-09-20T15:21:04;101994.97;;;14.45;81.34
57827;BME280;43656;57.746;11.780;2022-09-20T15:23:30;101983.69;;;14.41;81.88
57827;BME280;43656;57.746;11.780;2022-09-20T15:25:56;101997.84;;;14.43;81.61
57827;BME280;43656;57.746;11.780;2022-09-20T15:28:21;101951.75;;;14.08;80.55
57827;BME280;43656;57.746;11.780;2022-09-20T15:30:48;101971.84;;;14.21;80.32
57827;BME280;43656;57.746;11.780;2022-09-20T15:33:18;101955.09;;;14.10;81.97
57827;BME280;43656;57.746;11.780;2022-09-20T15:35:44;102008.94;;;14.48;81.95
57827;BME280;43656;57.746;11.780;2022-09-20T15:38:11;102003.91;;;14.45;81.75
57827;BME280;43656;57.746;11.780;2022-09-20T15:40:41;102003.25;;;14.43;81.44
57827;BME280;43656;57.746;11.780;2022-09-20T15:43:08;101969.31;;;14.19;81.34
57827;BME280;43656;57.746;11.780;2022-09-20T15:45:46;102004.69;;;14.39;81.51
57827;BME280;43656;57.746;11.780;2022-09-20T15:48:16;102012.81;;;14.39;80.27
57827;BME280;43656;57.746;11.780;2022-09-20T15:51:06;102000.06;;;14.33;81.64
57827;BME280;43656;57.746;11.780;2022-09-20T15:53:34;102015.53;;;14.39;81.25
57827;BME280;43656;57.746;11.780;2022-09-20T15:56:01;102001.59;;;14.42;81.95
57827;BME280;43656;57.746;11.780;2022-09-20T15:58:31;102023.47;;;14.41;80.49
57827;BME280;43656;57.746;11.780;2022-09-20T16:01:05;102022.00;;;14.38;81.05
57827;BME280;43656;57.746;11.780;2022-09-20T16:03:32;102011.53;;;14.35;82.60
57827;BME280;43656;57.746;11.780;2022-09-20T16:05:59;102022.22;;;14.43;82.53
57827;BME280;43656;57.746;11.780;2022-09-20T16:08:25;102029.06;;;14.39;79.95
57827;BME280;43656;57.746;11.780;2022-09-20T16:10:56;102006.25;;;14.27;80.67
57827;BME280;43656;57.746;11.780;2022-09-20T16:13:22;102007.94;;;14.28;81.40
57827;BME280;43656;57.746;11.780;2022-09-20T16:15:53;102015.69;;;14.31;80.11
57827;BME280;43656;57.746;11.780;2022-09-20T16:18:18;102034.69;;;14.38;79.27
57827;BME280;43656;57.746;11.780;2022-09-20T16:21:05;102030.88;;;14.32;80.32
57827;BME280;43656;57.746;11.780;2022-09-20T16:23:33;102039.28;;;14.37;80.24
57827;BME280;43656;57.746;11.780;2022-09-20T16:25:58;102036.94;;;14.34;80.52
57827;BME280;43656;57.746;11.780;2022-09-20T16:28:23;102020.97;;;14.18;81.56
57827;BME280;43656;57.746;11.780;2022-09-20T16:30:56;102038.56;;;14.28;82.29
57827;BME280;43656;57.746;11.780;2022-09-20T16:33:21;102046.03;;;14.26;81.34
57827;BME280;43656;57.746;11.780;2022-09-20T16:35:46;102042.03;;;14.22;81.33
57827;BME280;43656;57.746;11.780;2022-09-20T16:38:12;102053.63;;;14.16;79.67
57827;BME280;43656;57.746;11.780;2022-09-20T16:40:38;102048.88;;;14.18;80.82
57827;BME280;43656;57.746;11.780;2022-09-20T16:43:03;102045.88;;;14.13;80.39
57827;BME280;43656;57.746;11.780;2022-09-20T16:45:31;102057.97;;;14.10;79.83
57827;BME280;43656;57.746;11.780;2022-09-20T16:47:56;102057.31;;;14.08;79.69
57827;BME280;43656;57.746;11.780;2022-09-20T16:50:22;102046.78;;;13.99;81.12
57827;BME280;43656;57.746;11.780;2022-09-20T16:52:47;102067.28;;;14.08;82.33
57827;BME280;43656;57.746;11.780;2022-09-20T16:55:14;102034.78;;;13.86;81.61
57827;BME280;43656;57.746;11.780;2022-09-20T17:00:29;101890.81;;;12.82;81.80
57827;BME280;43656;57.746;11.780;2022-09-20T17:02:58;101889.97;;;12.82;81.35
57827;BME280;43656;57.746;11.780;2022-09-20T17:05:25;101868.38;;;12.67;82.21
57827;BME280;43656;57.746;11.780;2022-09-20T17:07:57;101906.28;;;12.88;83.48
57827;BME280;43656;57.746;11.780;2022-09-20T17:10:24;102090.19;;;13.91;83.58
57827;BME280;43656;57.746;11.780;2022-09-20T17:12:53;101960.94;;;13.05;84.15
57827;BME280;43656;57.746;11.780;2022-09-20T17:15:22;101854.69;;;12.39;83.82
57827;BME280;43656;57.746;11.780;2022-09-20T17:17:51;102008.00;;;13.40;83.29
57827;BME280;43656;57.746;11.780;2022-09-20T17:20:16;102016.78;;;13.43;82.76
57827;BME280;43656;57.746;11.780;2022-09-20T17:22:42;101914.38;;;12.74;82.89
57827;BME280;43656;57.746;11.780;2022-09-20T17:25:08;101859.81;;;12.49;83.60
57827;BME280;43656;57.746;11.780;2022-09-20T17:27:34;101832.88;;;12.11;83.96
57827;BME280;43656;57.746;11.780;2022-09-20T17:30:04;102099.00;;;13.78;84.17
57827;BME280;43656;57.746;11.780;2022-09-20T17:37:44;101931.88;;;12.78;85.20
57827;BME280;43656;57.746;11.780;2022-09-20T17:40:10;102055.09;;;13.46;85.61
57827;BME280;43656;57.746;11.780;2022-09-20T17:42:36;102088.84;;;13.50;86.03
57827;BME280;43656;57.746;11.780;2022-09-20T17:45:03;102070.38;;;13.39;86.06
57827;BME280;43656;57.746;11.780;2022-09-20T17:47:29;102020.75;;;13.02;85.59
57827;BME280;43656;57.746;11.780;2022-09-20T17:49:57;102102.34;;;13.50;85.41
57827;BME280;43656;57.746;11.780;2022-09-20T17:52:22;102093.50;;;13.42;86.21
57827;BME280;43656;57.746;11.780;2022-09-20T17:54:48;102106.19;;;13.41;87.00
57827;BME280;43656;57.746;11.780;2022-09-20T17:57:16;101963.41;;;12.48;86.77
57827;BME280;43656;57.746;11.780;2022-09-20T17:59:41;102026.97;;;12.73;87.84
57827;BME280;43656;57.746;11.780;2022-09-20T18:02:07;102116.69;;;13.21;87.56
57827;BME280;43656;57.746;11.780;2022-09-20T18:04:34;101913.91;;;12.03;87.31
57827;BME280;43656;57.746;11.780;2022-09-20T18:07:00;101875.06;;;11.66;87.26
57827;BME280;43656;57.746;11.780;2022-09-20T18:09:27;102125.09;;;13.26;86.97
57827;BME280;43656;57.746;11.780;2022-09-20T18:11:54;101891.47;;;11.79;86.86
57827;BME280;43656;57.746;11.780;2022-09-20T18:14:22;101972.44;;;12.40;86.63
57827;BME280;43656;57.746;11.780;2022-09-20T18:16:52;102126.25;;;13.24;86.95
57827;BME280;43656;57.746;11.780;2022-09-20T18:19:19;101964.16;;;12.18;86.92
57827;BME280;43656;57.746;11.780;2022-09-20T18:21:46;101971.38;;;12.03;87.53
57827;BME280;43656;57.746;11.780;2022-09-20T18:24:12;101881.16;;;11.37;87.68
57827;BME280;43656;57.746;11.780;2022-09-20T18:26:38;101930.53;;;11.60;87.72
57827;BME280;43656;57.746;11.780;2022-09-20T18:31:41;101910.66;;;11.30;88.27
57827;BME280;43656;57.746;11.780;2022-09-20T18:34:11;101916.06;;;11.30;88.36
57827;BME280;43656;57.746;11.780;2022-09-20T18:36:42;101956.88;;;11.50;88.98
57827;BME280;43656;57.746;11.780;2022-09-20T18:39:08;102045.91;;;12.04;88.80
57827;BME280;43656;57.746;11.780;2022-09-20T18:44:10;102148.84;;;12.47;89.24
57827;BME280;43656;57.746;11.780;2022-09-20T18:46:38;101994.94;;;11.47;89.20
57827;BME280;43656;57.746;11.780;2022-09-20T18:49:09;101997.25;;;11.19;89.89
57827;BME280;43656;57.746;11.780;2022-09-20T18:51:37;102044.84;;;11.35;90.66
57827;BME280;43656;57.746;11.780;2022-09-20T18:54:03;102055.16;;;11.31;91.16
57827;BME280;43656;57.746;11.780;2022-09-20T18:56:31;102148.50;;;11.80;91.84
57827;BME280;43656;57.746;11.780;2022-09-20T18:59:01;102157.13;;;11.67;92.03
57827;BME280;43656;57.746;11.780;2022-09-20T19:09:52;102082.00;;;10.51;94.39
57827;BME280;43656;57.746;11.780;2022-09-20T19:12:49;102162.28;;;10.96;94.69
57827;BME280;43656;57.746;11.780;2022-09-20T19:20:35;102166.81;;;10.71;95.57
57827;BME280;43656;57.746;11.780;2022-09-20T19:23:12;102170.66;;;10.69;95.53
57827;BME280;43656;57.746;11.780;2022-09-20T19:25:43;102179.91;;;10.58;96.31
57827;BME280;43656;57.746;11.780;2022-09-20T19:28:11;102175.38;;;10.50;96.70
57827;BME280;43656;57.746;11.780;2022-09-20T19:30:37;102194.03;;;10.44;97.15
57827;BME280;43656;57.746;11.780;2022-09-20T19:33:03;102156.09;;;10.21;97.22
57827;BME280;43656;57.746;11.780;2022-09-20T19:35:34;102064.25;;;9.57;97.05
57827;BME280;43656;57.746;11.780;2022-09-20T19:38:26;102183.66;;;10.23;97.71
57827;BME280;43656;57.746;11.780;2022-09-20T19:49:17;102183.53;;;9.90;98.22
57827;BME280;43656;57.746;11.780;2022-09-20T19:51:46;102191.72;;;9.80;98.67
57827;BME280;43656;57.746;11.780;2022-09-20T19:54:13;102185.84;;;9.77;99.50
57827;BME280;43656;57.746;11.780;2022-09-20T19:59:07;102188.94;;;9.64;99.79
57827;BME280;43656;57.746;11.780;2022-09-20T20:01:34;102190.41;;;9.58;99.39
57827;BME280;43656;57.746;11.780;2022-09-20T20:03:59;102193.72;;;9.52;99.84
57827;BME280;43656;57.746;11.780;2022-09-20T20:06:35;102188.31;;;9.44;99.94
57827;BME280;43656;57.746;11.780;2022-09-20T20:11:50;102188.34;;;9.26;100.00
57827;BME280;43656;57.746;11.780;2022-09-20T20:14:35;102185.44;;;9.20;100.00